METAR AND TAF INFORMATION
METAR FOR LEST
ADDS - METARS form results

(1141 UTC 24 October 2020)
Data provider http://aviationweather.gov/metar/data/
 
METAR text: LEST 241131Z 22016G26KT 190V270 9999 -RADZ SCT005 BKN008 14/13 Q1019 TEMPO 3000 -RA
Conditions at: LEST (SANTIAGO/LABACOL, ES) observed 1131 UTC 24 October 2020
Temperature: 14.0°C (57°F)
Dewpoint: 13.0°C (55°F) [RH = 94%]
Pressure (altimeter): 30.09 inches Hg (1019.0 mb)
Winds: from the SW (220 degrees) at 18 MPH (16 knots; 8.2 m/s)
gusting to 30 MPH (26 knots; 13.4 m/s)
Visibility: 6 or more miles (10+ km)
Ceiling: 800 feet AGL
Clouds: scattered clouds at 500 feet AGL
broken clouds at 800 feet AGL
Weather: -RA -DZ  (light rain, light drizzle)

METAR text: LEST 241130Z 22016G26KT 180V280 4000 -RADZ SCT004 BKN006 14/13 Q1019 NOSIG
Conditions at: LEST (SANTIAGO/LABACOL, ES) observed 1130 UTC 24 October 2020
Temperature: 14.0°C (57°F)
Dewpoint: 13.0°C (55°F) [RH = 94%]
Pressure (altimeter): 30.09 inches Hg (1019.0 mb)
Winds: from the SW (220 degrees) at 18 MPH (16 knots; 8.2 m/s)
gusting to 30 MPH (26 knots; 13.4 m/s)
Visibility: 2.49 miles (4.01 km)
Ceiling: 600 feet AGL
Clouds: scattered clouds at 400 feet AGL
broken clouds at 600 feet AGL
Weather: -RA -DZ  (light rain, light drizzle)

METAR text: LEST 241100Z 22016G28KT 180V260 9999 SCT005 BKN009 14/13 Q1019 TEMPO 3000 -RA
Conditions at: LEST (SANTIAGO/LABACOL, ES) observed 1100 UTC 24 October 2020
Temperature: 14.0°C (57°F)
Dewpoint: 13.0°C (55°F) [RH = 94%]
Pressure (altimeter): 30.09 inches Hg (1019.0 mb)
Winds: from the SW (220 degrees) at 18 MPH (16 knots; 8.2 m/s)
gusting to 32 MPH (28 knots; 14.4 m/s)
Visibility: 6 or more miles (10+ km)
Ceiling: 900 feet AGL
Clouds: scattered clouds at 500 feet AGL
broken clouds at 900 feet AGL
Weather: no significant weather observed at this time

METAR text: LEST 241051Z 22016G28KT 180V270 9999 SCT005 BKN009 14/13 Q1019 TEMPO 3000 -RA
Conditions at: LEST (SANTIAGO/LABACOL, ES) observed 1051 UTC 24 October 2020
Temperature: 14.0°C (57°F)
Dewpoint: 13.0°C (55°F) [RH = 94%]
Pressure (altimeter): 30.09 inches Hg (1019.0 mb)
Winds: from the SW (220 degrees) at 18 MPH (16 knots; 8.2 m/s)
gusting to 32 MPH (28 knots; 14.4 m/s)
Visibility: 6 or more miles (10+ km)
Ceiling: 900 feet AGL
Clouds: scattered clouds at 500 feet AGL
broken clouds at 900 feet AGL
Weather: no significant weather observed at this time

Forecast for: LEST (SANTIAGO/LABACOL, ES)
Text: TAF LEST 241100Z 2412/2512 22009KT 9999 SCT005 BKN015 TX15/2414Z TN12/2508Z
Forecast period: 1200 UTC 24 October 2020 to 1200 UTC 25 October 2020
Forecast type: FROM: standard forecast or significant change
Winds: from the SW (220 degrees) at 10 MPH (9 knots; 4.6 m/s)
Visibility: 6 or more miles (10+ km)
Ceiling: 1500 feet AGL
Clouds: scattered clouds at 500 feet AGL
broken clouds at 1500 feet AGL
Weather: no significant weather forecast for this period
Text: TEMPO 2412/2512 23018G31KT 3000 RA BR BKN005
Forecast period: 1200 UTC 24 October 2020 to 1200 UTC 25 October 2020
Forecast type: TEMPORARY: The following changes expected for less than half the time period
Winds: from the SW (230 degrees) at 21 MPH (18 knots; 9.3 m/s)
gusting to 36 MPH (31 knots; 15.9 m/s)
Visibility: 1.86 miles (2.99 km)
Ceiling: 500 feet AGL
Clouds: broken clouds at 500 feet AGL
Weather: RA BR  (moderate rain, mist)
Text: TEMPO 2418/2503 23025G43KT
Forecast period: 1800 UTC 24 October 2020 to 0300 UTC 25 October 2020
Forecast type: TEMPORARY: The following changes expected for less than half the time period
Winds: from the SW (230 degrees) at 29 MPH (25 knots; 12.9 m/s)
gusting to 49 MPH (43 knots; 22.1 m/s)
Visibility: missing
Ceiling: unknown
Clouds: missing
Weather: no significant weather forecast for this period
Text: TEMPO 2421/2501 1500 +RA
Forecast period: 2100 UTC 24 October 2020 to 0100 UTC 25 October 2020
Forecast type: TEMPORARY: The following changes expected for less than half the time period
Visibility: 0.93 miles (1.50 km)
Ceiling: unknown
Clouds: missing
Weather: +RA  (heavy rain)
Text: PROB40
Forecast period: 2300 UTC 24 October 2020 to 0800 UTC 25 October 2020
Forecast type: TEMPORARY: The following changes expected for less than half the time period
Visibility: 0.50 miles (0.80 km)
Ceiling: indefinite ceiling with vertical visibility of 100 feet AGL
Clouds: obscured sky
Weather: FG  (fog)

 AIRPORT MAP

 RUNWAY INFORMATION
Runway 17 Runway length 10499 ft Runway width 148 ft
Runway elevation 1170 ft Runway displaced threshold 394 ft Runway heading 166
Runway 35 Runway length 10499 ft Runway width 148 ft
Runway elevation 1196 ft Runway displaced threshold 0 ft Runway heading 346

 AIRPORT FREQUENCIES
Type APP Name APP Frequency 118.2 MHZ
Type GND Name GND Frequency 121.7 MHZ
Type TWR Name TWR Frequency 118.75 MHZ

 AIRPORT NEAR NAVIGATION AIDS
Type NDB Name Santiago Frequency 417 KHZ
Type VOR-DME Name Santiago Frequency 116400 KHZ